createdAt,value
2022-12-18T00:01:34.764Z,103036.72
2022-12-18T00:04:04.149Z,103027.59
2022-12-18T00:06:31.132Z,103023.16
2022-12-18T00:08:59.157Z,103021.81
2022-12-18T00:11:28.655Z,103015.31
2022-12-18T00:13:57.087Z,103008.88
2022-12-18T00:16:25.648Z,103008.47
2022-12-18T00:18:55.358Z,103008.59
2022-12-18T00:21:22.303Z,103013.72
2022-12-18T00:23:50.294Z,103012.91
2022-12-18T00:26:23.327Z,103015.19
2022-12-18T00:28:50.519Z,103022.59
2022-12-18T00:31:20.501Z,103019.91
2022-12-18T00:33:47.527Z,103025.03
2022-12-18T00:36:18.627Z,103007.94
2022-12-18T00:38:45.687Z,103009.94
2022-12-18T00:41:14.403Z,103006.84
2022-12-18T00:43:41.354Z,103003.78
2022-12-18T00:46:08.161Z,103002.44
2022-12-18T00:48:34.755Z,103012.91
2022-12-18T00:51:01.143Z,103010.47
2022-12-18T00:53:27.706Z,103007.25
2022-12-18T00:55:54.164Z,103021.22
2022-12-18T00:58:20.555Z,103014.91
2022-12-18T01:00:47.187Z,103009.69
2022-12-18T01:03:15.163Z,103009.69
2022-12-18T01:05:43.068Z,103004.44
2022-12-18T01:08:10.322Z,102997.03
2022-12-18T01:10:36.758Z,102993.81
2022-12-18T01:13:03.234Z,102989.00
2022-12-18T01:15:29.719Z,102988.84
2022-12-18T01:17:56.213Z,102999.88
2022-12-18T01:20:22.648Z,103001.59
2022-12-18T01:22:49.084Z,103005.91
2022-12-18T01:25:15.547Z,103007.78
2022-12-18T01:27:42.163Z,103007.78
2022-12-18T01:30:09.042Z,103024.56
2022-12-18T01:32:35.494Z,103024.75
2022-12-18T01:35:01.919Z,103018.97
2022-12-18T01:37:28.423Z,103024.19
2022-12-18T01:39:55.576Z,103030.09
2022-12-18T01:42:22.866Z,103025.50
2022-12-18T01:45:17.276Z,103023.38
2022-12-18T01:47:47.558Z,103036.53
2022-12-18T01:50:28.103Z,103037.97
2022-12-18T01:53:11.681Z,103026.81
2022-12-18T01:55:46.298Z,103028.16
2022-12-18T01:58:12.969Z,103029.59
2022-12-18T02:00:39.677Z,103029.19
2022-12-18T02:03:06.281Z,103019.50
2022-12-18T02:05:58.376Z,103032.09
2022-12-18T02:08:43.489Z,103041.84
2022-12-18T02:11:38.696Z,103038.72
2022-12-18T02:14:39.325Z,103038.44
2022-12-18T02:17:30.643Z,103034.66
2022-12-18T02:20:03.857Z,103026.44
2022-12-18T02:22:45.813Z,103029.25
2022-12-18T02:25:21.368Z,103035.66
2022-12-18T02:27:50.235Z,103040.47
2022-12-18T02:30:17.130Z,103044.19
2022-12-18T02:32:49.567Z,103035.19
2022-12-18T02:35:23.184Z,103036.38
2022-12-18T02:37:50.162Z,103033.38
2022-12-18T02:40:18.182Z,103030.94
2022-12-18T02:42:44.656Z,103032.94
2022-12-18T02:45:11.251Z,103022.31
2022-12-18T02:47:40.059Z,103019.88
2022-12-18T02:50:34.507Z,103011.00
2022-12-18T02:53:28.644Z,103006.16
2022-12-18T02:56:14.853Z,103013.34
2022-12-18T02:59:09.595Z,103011.97
2022-12-18T03:01:36.192Z,103011.31
2022-12-18T03:04:09.065Z,103009.94
2022-12-18T03:06:42.679Z,103004.28
2022-12-18T03:09:18.625Z,102996.22
2022-12-18T03:12:10.244Z,102995.66
2022-12-18T03:14:39.187Z,102989.47
2022-12-18T03:17:11.784Z,102996.53
2022-12-18T03:19:40.220Z,102990.06
2022-12-18T03:22:09.263Z,102990.19
2022-12-18T03:24:39.891Z,102989.38
2022-12-18T03:27:12.061Z,102983.47
2022-12-18T03:29:43.498Z,102981.19
2022-12-18T03:32:20.512Z,102981.41
2022-12-18T03:34:50.829Z,102973.09
2022-12-18T03:37:17.434Z,102964.91
2022-12-18T03:39:43.904Z,102972.53
2022-12-18T03:42:29.753Z,102963.38
2022-12-18T03:45:20.808Z,102963.53
2022-12-18T03:48:04.662Z,102956.94
2022-12-18T03:50:59.187Z,102957.19
2022-12-18T03:53:32.327Z,102959.72
2022-12-18T03:56:01.147Z,102959.84
2022-12-18T03:58:29.954Z,102965.03
2022-12-18T04:01:00.589Z,102960.91
2022-12-18T04:03:29.325Z,102964.34
2022-12-18T04:05:57.710Z,102951.75
2022-12-18T04:08:25.696Z,102958.69
2022-12-18T04:10:52.326Z,102946.13
2022-12-18T04:13:29.008Z,102952.22
2022-12-18T04:15:55.485Z,102948.47
2022-12-18T04:18:22.178Z,102933.31
2022-12-18T04:20:48.530Z,102928.09
2022-12-18T04:23:14.985Z,102930.66
2022-12-18T04:25:41.642Z,102932.50
2022-12-18T04:28:08.102Z,102927.66
2022-12-18T04:30:34.606Z,102930.19
2022-12-18T04:33:00.990Z,102919.44
2022-12-18T04:35:27.679Z,102921.31
2022-12-18T04:37:54.369Z,102920.72
2022-12-18T04:40:20.747Z,102930.09
2022-12-18T04:42:47.162Z,102926.06
2022-12-18T04:45:13.845Z,102934.75
2022-12-18T04:47:40.346Z,102944.44
2022-12-18T04:50:07.203Z,102953.00
2022-12-18T04:52:33.571Z,102958.91
2022-12-18T04:54:59.984Z,102961.56
2022-12-18T04:57:27.091Z,102962.34
2022-12-18T04:59:53.472Z,102957.53
2022-12-18T05:02:19.979Z,102961.78
2022-12-18T05:04:46.581Z,102971.25
2022-12-18T05:07:13.166Z,102971.38
2022-12-18T05:09:39.598Z,102972.31
2022-12-18T05:12:06.285Z,102986.66
2022-12-18T05:14:32.742Z,102975.88
2022-12-18T05:17:01.067Z,102976.94
2022-12-18T05:19:27.826Z,102984.44
2022-12-18T05:21:54.357Z,102985.47
2022-12-18T05:24:20.793Z,102988.03
2022-12-18T05:26:47.472Z,102989.75
2022-12-18T05:29:14.161Z,102988.25
2022-12-18T05:31:41.144Z,103004.31
2022-12-18T05:34:09.533Z,103001.88
2022-12-18T05:36:37.094Z,103004.41
2022-12-18T05:39:03.768Z,103007.06
2022-12-18T05:41:30.950Z,103004.66
2022-12-18T05:43:57.656Z,102994.50
2022-12-18T05:46:25.241Z,102981.66
2022-12-18T05:48:52.113Z,102979.69
2022-12-18T05:51:21.911Z,102982.03
2022-12-18T05:53:49.169Z,102976.25
2022-12-18T05:56:19.271Z,102971.38
2022-12-18T05:58:46.060Z,102971.50
2022-12-18T06:01:19.391Z,102970.94
2022-12-18T06:03:46.546Z,102964.34
2022-12-18T06:06:15.180Z,102964.47
2022-12-18T06:08:46.170Z,102959.41
2022-12-18T06:11:14.178Z,102964.59
2022-12-18T06:13:40.937Z,102956.38
2022-12-18T06:16:08.939Z,102952.19
2022-12-18T06:18:38.971Z,102949.09
2022-12-18T06:21:05.568Z,102946.09
2022-12-18T06:23:31.972Z,102945.28
2022-12-18T06:25:58.427Z,102938.59
2022-12-18T06:28:24.833Z,102942.06
2022-12-18T06:30:51.836Z,102941.00
2022-12-18T06:33:18.371Z,102936.28
2022-12-18T06:35:44.815Z,102941.81
2022-12-18T06:38:11.316Z,102933.63
2022-12-18T06:40:39.812Z,102928.75
2022-12-18T06:43:07.394Z,102928.19
2022-12-18T06:45:34.081Z,102926.69
2022-12-18T06:48:01.115Z,102925.19
2022-12-18T06:50:27.816Z,102915.81
2022-12-18T06:52:54.331Z,102905.91
2022-12-18T06:55:20.932Z,102910.28
2022-12-18T06:57:47.396Z,102906.97
2022-12-18T07:00:14.535Z,102901.88
2022-12-18T07:02:41.632Z,102891.81
2022-12-18T07:05:10.868Z,102899.44
2022-12-18T07:07:37.923Z,102888.00
2022-12-18T07:10:04.875Z,102895.63
2022-12-18T07:12:31.318Z,102895.03
2022-12-18T07:14:57.791Z,102896.78
2022-12-18T07:17:24.373Z,102892.50
2022-12-18T07:19:50.824Z,102880.75
2022-12-18T07:22:17.355Z,102883.28
2022-12-18T07:24:43.756Z,102885.94
2022-12-18T07:27:10.128Z,102890.06
2022-12-18T07:29:36.870Z,102888.34
2022-12-18T07:32:04.589Z,102880.75
2022-12-18T07:34:31.159Z,102874.72
2022-12-18T07:36:57.583Z,102861.94
2022-12-18T07:39:24.174Z,102861.00
2022-12-18T07:42:10.544Z,102865.16
2022-12-18T07:44:37.243Z,102860.09
2022-12-18T07:47:06.653Z,102853.38
2022-12-18T07:49:37.482Z,102851.56
2022-12-18T07:52:04.091Z,102844.63
2022-12-18T07:54:30.542Z,102839.31
2022-12-18T07:56:56.990Z,102832.38
2022-12-18T07:59:23.562Z,102831.81
2022-12-18T08:01:50.004Z,102840.00
2022-12-18T08:04:16.540Z,102836.31
2022-12-18T08:06:47.601Z,102834.22
2022-12-18T08:09:14.682Z,102827.06
2022-12-18T08:11:41.298Z,102814.00
2022-12-18T08:14:07.847Z,102814.31
2022-12-18T08:16:34.413Z,102813.84
2022-12-18T08:19:01.079Z,102827.81
2022-12-18T08:21:30.104Z,102817.66
2022-12-18T08:23:58.594Z,102819.00
2022-12-18T08:26:27.987Z,102829.75
2022-12-18T08:28:55.978Z,102835.03
2022-12-18T08:31:23.451Z,102843.94
2022-12-18T08:33:53.218Z,102850.28
2022-12-18T08:36:20.956Z,102861.81
2022-12-18T08:38:48.097Z,102851.38
2022-12-18T08:41:16.790Z,102841.22
2022-12-18T08:44:02.222Z,102851.97
2022-12-18T08:46:35.127Z,102840.72
2022-12-18T08:49:01.835Z,102835.41
2022-12-18T08:51:29.264Z,102836.00
2022-12-18T08:53:55.720Z,102841.66
2022-12-18T08:56:22.128Z,102836.97
2022-12-18T08:58:48.784Z,102832.34
2022-12-18T09:01:15.377Z,102831.69
2022-12-18T09:03:42.675Z,102842.91
2022-12-18T09:06:09.363Z,102855.81
2022-12-18T09:08:36.034Z,102845.91
2022-12-18T09:11:02.462Z,102840.31
2022-12-18T09:13:29.636Z,102833.81
2022-12-18T09:15:56.667Z,102839.97
2022-12-18T09:18:24.999Z,102845.78
2022-12-18T09:20:53.330Z,102831.63
2022-12-18T09:23:20.454Z,102836.88
2022-12-18T09:25:46.862Z,102838.91
2022-12-18T09:28:15.607Z,102839.31
2022-12-18T09:30:44.499Z,102831.88
2022-12-18T09:33:11.626Z,102835.50
2022-12-18T09:35:40.783Z,102832.31
2022-12-18T09:38:09.591Z,102820.50
2022-12-18T09:40:40.830Z,102809.66
2022-12-18T09:43:10.576Z,102803.91
2022-12-18T09:45:43.967Z,102803.13
2022-12-18T09:48:29.060Z,102810.09
2022-12-18T09:51:02.643Z,102801.09
2022-12-18T09:53:36.089Z,102798.53
2022-12-18T09:56:05.588Z,102782.44
2022-12-18T09:58:46.142Z,102782.69
2022-12-18T10:01:24.018Z,102786.97
2022-12-18T10:03:52.746Z,102788.84
2022-12-18T10:06:45.442Z,102790.69
2022-12-18T10:09:31.614Z,102789.72
2022-12-18T10:12:07.679Z,102777.22
2022-12-18T10:14:40.083Z,102784.19
2022-12-18T10:17:36.652Z,102773.13
2022-12-18T10:20:32.984Z,102770.00
2022-12-18T10:23:09.060Z,102776.97
2022-12-18T10:26:02.774Z,102777.88
2022-12-18T10:28:32.210Z,102775.84
2022-12-18T10:30:59.769Z,102780.50
2022-12-18T10:33:30.880Z,102767.84
2022-12-18T10:35:57.342Z,102760.53
2022-12-18T10:38:31.683Z,102750.53
2022-12-18T10:41:02.989Z,102752.69
2022-12-18T10:43:33.356Z,102766.66
2022-12-18T10:46:06.589Z,102767.97
2022-12-18T10:48:54.821Z,102757.00
2022-12-18T10:51:23.278Z,102756.56
2022-12-18T10:54:24.981Z,102746.56
2022-12-18T10:56:51.590Z,102736.53
2022-12-18T10:59:19.100Z,102737.84
2022-12-18T11:01:51.705Z,102738.22
2022-12-18T11:04:21.731Z,102730.22
2022-12-18T11:07:07.897Z,102723.22
2022-12-18T11:09:39.333Z,102723.59
2022-12-18T11:12:18.583Z,102723.13
2022-12-18T11:14:56.927Z,102706.69
2022-12-18T11:17:35.903Z,102706.25
2022-12-18T11:20:07.911Z,102704.84
2022-12-18T11:22:39.193Z,102701.81
2022-12-18T11:25:32.689Z,102697.88
2022-12-18T11:28:04.033Z,102688.59
2022-12-18T11:30:32.902Z,102687.66
2022-12-18T11:33:21.783Z,102683.69
2022-12-18T11:35:53.609Z,102692.50
2022-12-18T11:38:26.422Z,102693.00
2022-12-18T11:41:01.618Z,102696.72
2022-12-18T11:43:56.701Z,102697.88
2022-12-18T11:46:31.545Z,102690.69
2022-12-18T11:49:02.315Z,102684.94
2022-12-18T11:51:46.030Z,102678.38
2022-12-18T11:54:17.017Z,102684.66
2022-12-18T11:56:50.743Z,102675.06
2022-12-18T11:59:57.376Z,102665.16
2022-12-18T12:02:39.918Z,102657.97
2022-12-18T12:05:15.527Z,102653.63
2022-12-18T12:08:13.035Z,102652.66
2022-12-18T12:11:02.765Z,102641.47
2022-12-18T12:13:51.010Z,102634.41
2022-12-18T12:16:50.270Z,102631.06
2022-12-18T12:19:45.212Z,102628.16
2022-12-18T12:22:22.525Z,102625.94
2022-12-18T12:25:13.156Z,102622.91
2022-12-18T12:28:00.250Z,102620.34
2022-12-18T12:30:52.764Z,102612.34
2022-12-18T12:33:51.560Z,102613.63
2022-12-18T12:36:47.087Z,102608.97
2022-12-18T12:39:21.677Z,102605.31
2022-12-18T12:42:07.427Z,102599.19
2022-12-18T12:44:40.377Z,102592.16
2022-12-18T12:47:21.589Z,102590.22
2022-12-18T12:49:51.642Z,102584.16
2022-12-18T12:52:48.547Z,102578.69
2022-12-18T12:55:27.758Z,102579.66
2022-12-18T12:57:59.363Z,102569.25
2022-12-18T13:00:29.367Z,102571.63
2022-12-18T13:03:37.844Z,102568.75
2022-12-18T13:06:29.888Z,102571.97
2022-12-18T13:09:00.575Z,102565.22
2022-12-18T13:12:06.620Z,102560.09
2022-12-18T13:14:37.209Z,102570.19
2022-12-18T13:17:22.949Z,102566.19
2022-12-18T13:20:04.345Z,102573.75
2022-12-18T13:22:36.603Z,102571.81
2022-12-18T13:25:04.176Z,102578.69
2022-12-18T13:27:46.210Z,102569.25
2022-12-18T13:30:32.310Z,102568.13
2022-12-18T13:33:20.751Z,102550.16
2022-12-18T13:35:47.552Z,102553.69
2022-12-18T13:38:38.830Z,102548.56
2022-12-18T13:41:24.853Z,102540.06
2022-12-18T13:43:54.209Z,102535.09
2022-12-18T13:46:25.267Z,102536.72
2022-12-18T13:49:06.222Z,102530.94
2022-12-18T13:51:34.888Z,102521.81
2022-12-18T13:54:19.627Z,102517.50
2022-12-18T13:56:48.077Z,102507.22
2022-12-18T13:59:26.361Z,102519.06
2022-12-18T14:01:58.757Z,102513.16
2022-12-18T14:04:33.918Z,102519.91
2022-12-18T14:07:11.745Z,102504.50
2022-12-18T14:10:01.976Z,102500.19
2022-12-18T14:12:57.766Z,102502.75
2022-12-18T14:15:27.377Z,102496.00
2022-12-18T14:17:58.087Z,102492.50
2022-12-18T14:20:26.609Z,102477.09
2022-12-18T14:22:53.063Z,102486.38
2022-12-18T14:25:25.074Z,102487.34
2022-12-18T14:28:16.159Z,102477.09
2022-12-18T14:30:45.068Z,102464.28
2022-12-18T14:33:15.104Z,102467.47
2022-12-18T14:35:44.442Z,102458.03
2022-12-18T14:38:16.868Z,102458.81
2022-12-18T14:40:44.390Z,102458.81
2022-12-18T14:43:11.932Z,102458.03
2022-12-18T14:45:43.579Z,102453.69
2022-12-18T14:48:36.687Z,102459.63
2022-12-18T14:51:05.212Z,102456.09
2022-12-18T14:53:43.059Z,102437.66
2022-12-18T14:56:35.934Z,102446.97
2022-12-18T14:59:05.964Z,102445.34
2022-12-18T15:01:40.125Z,102455.63
2022-12-18T15:04:25.915Z,102444.72
2022-12-18T15:07:23.274Z,102440.22
2022-12-18T15:10:12.548Z,102437.03
2022-12-18T15:12:50.578Z,102437.03
2022-12-18T15:15:41.345Z,102436.09
2022-12-18T15:18:13.765Z,102433.53
2022-12-18T15:21:09.251Z,102427.59
2022-12-18T15:23:53.024Z,102430.31
2022-12-18T15:26:22.289Z,102422.63
2022-12-18T15:28:58.539Z,102429.34
2022-12-18T15:31:31.012Z,102428.56
2022-12-18T15:33:57.664Z,102422.63
2022-12-18T15:36:26.329Z,102430.16
2022-12-18T15:38:55.493Z,102426.78
2022-12-18T15:41:35.200Z,102425.19
2022-12-18T15:44:02.629Z,102429.53
2022-12-18T15:46:31.591Z,102432.25
2022-12-18T15:49:02.354Z,102434.66
2022-12-18T15:51:37.037Z,102416.88
2022-12-18T15:54:07.056Z,102417.66
2022-12-18T15:56:52.488Z,102411.59
2022-12-18T15:59:20.998Z,102412.53
2022-12-18T16:01:50.092Z,102403.06
2022-12-18T16:04:20.977Z,102396.34
2022-12-18T16:09:34.414Z,102388.66
2022-12-18T16:12:01.004Z,102391.22
2022-12-18T16:14:30.290Z,102384.50
2022-12-18T16:16:59.983Z,102374.06
2022-12-18T16:19:27.120Z,102377.63
2022-12-18T16:21:56.461Z,102371.69
2022-12-18T16:24:25.887Z,102363.03
2022-12-18T16:26:53.657Z,102363.03
2022-12-18T16:29:25.892Z,102368.00
2022-12-18T16:31:52.525Z,102347.66
2022-12-18T16:34:24.942Z,102346.66
2022-12-18T16:36:55.570Z,102336.41
2022-12-18T16:39:24.656Z,102335.47
2022-12-18T16:41:51.766Z,102339.59
2022-12-18T16:44:18.422Z,102328.56
2022-12-18T16:46:46.365Z,102331.75
2022-12-18T16:49:17.453Z,102323.28
2022-12-18T16:51:44.765Z,102325.84
2022-12-18T16:54:15.939Z,102327.41
2022-12-18T16:56:45.381Z,102323.91
2022-12-18T16:59:12.791Z,102321.34
2022-12-18T17:01:39.567Z,102315.22
2022-12-18T17:04:06.972Z,102321.19
2022-12-18T17:06:36.161Z,102319.25
2022-12-18T17:09:09.463Z,102319.25
2022-12-18T17:11:36.181Z,102320.03
2022-12-18T17:14:15.652Z,102324.19
2022-12-18T17:16:42.619Z,102324.03
2022-12-18T17:19:15.198Z,102328.34
2022-12-18T17:21:45.070Z,102323.22
2022-12-18T17:24:11.679Z,102322.25
2022-12-18T17:26:38.309Z,102327.22
2022-12-18T17:29:05.309Z,102319.53
2022-12-18T17:31:32.326Z,102318.72
2022-12-18T17:33:59.251Z,102311.03
2022-12-18T17:36:29.157Z,102312.63
2022-12-18T17:38:57.815Z,102323.69
2022-12-18T17:41:24.835Z,102326.06
2022-12-18T17:43:52.939Z,102322.88
2022-12-18T17:46:20.097Z,102321.94
2022-12-18T17:48:47.131Z,102320.94
2022-12-18T17:51:14.729Z,102323.34
2022-12-18T17:53:41.926Z,102324.13
2022-12-18T17:56:12.672Z,102327.69
2022-12-18T17:58:40.124Z,102311.31
2022-12-18T18:01:07.505Z,102309.41
2022-12-18T18:03:37.467Z,102319.66
2022-12-18T18:06:05.150Z,102319.47
2022-12-18T18:08:34.636Z,102320.28
2022-12-18T18:11:28.143Z,102318.34
2022-12-18T18:14:04.598Z,102319.31
2022-12-18T18:16:39.151Z,102326.06
2022-12-18T18:19:08.207Z,102326.69
2022-12-18T18:21:37.687Z,102319.94
2022-12-18T18:24:05.434Z,102319.00
2022-12-18T18:26:33.358Z,102310.31
2022-12-18T18:29:01.071Z,102320.41
2022-12-18T18:31:31.210Z,102315.13
2022-12-18T18:33:58.086Z,102317.69
2022-12-18T18:36:24.707Z,102308.22
2022-12-18T18:38:51.713Z,102299.38
2022-12-18T18:41:19.668Z,102301.94
2022-12-18T18:43:46.320Z,102306.13
2022-12-18T18:46:15.070Z,102314.44
2022-12-18T18:48:42.997Z,102311.88
2022-12-18T18:51:16.539Z,102303.19
2022-12-18T18:53:50.422Z,102304.81
2022-12-18T18:56:56.667Z,102286.66
2022-12-18T18:59:06.343Z,102283.91
2022-12-18T19:01:38.640Z,102291.44
2022-12-18T19:04:05.350Z,102288.09
2022-12-18T19:06:31.823Z,102290.31
2022-12-18T19:09:00.812Z,102287.56
2022-12-18T19:11:46.210Z,102285.63
2022-12-18T19:14:14.819Z,102284.69
2022-12-18T19:16:42.036Z,102281.91
2022-12-18T19:19:09.407Z,102285.94
2022-12-18T19:21:37.307Z,102280.78
2022-12-18T19:24:04.605Z,102288.28
2022-12-18T19:26:31.021Z,102280.44
2022-12-18T19:29:06.092Z,102287.81
2022-12-18T19:31:36.094Z,102282.66
2022-12-18T19:34:03.984Z,102278.31
2022-12-18T19:36:32.794Z,102276.38
2022-12-18T19:39:01.697Z,102289.84
2022-12-18T19:41:31.192Z,102288.06
2022-12-18T19:43:59.722Z,102292.03
2022-12-18T19:46:26.319Z,102298.97
2022-12-18T19:48:53.065Z,102298.78
2022-12-18T19:51:23.105Z,102296.06
2022-12-18T19:53:53.669Z,102290.94
2022-12-18T19:56:26.793Z,102288.00
2022-12-18T19:58:54.609Z,102292.00
2022-12-18T20:01:23.020Z,102295.53
2022-12-18T20:03:52.384Z,102278.53
2022-12-18T20:06:26.272Z,102278.53
2022-12-18T20:08:54.030Z,102275.34
2022-12-18T20:11:26.850Z,102275.34
2022-12-18T20:13:53.278Z,102273.75
2022-12-18T20:16:19.915Z,102277.09
2022-12-18T20:18:46.431Z,102283.06
2022-12-18T20:21:14.193Z,102277.28
2022-12-18T20:23:41.257Z,102284.00
2022-12-18T20:26:08.765Z,102278.88
2022-12-18T20:28:35.818Z,102275.53
2022-12-18T20:31:06.403Z,102286.59
2022-12-18T20:33:33.264Z,102288.34
2022-12-18T20:36:02.292Z,102293.66
2022-12-18T20:38:30.293Z,102280.81
2022-12-18T20:40:58.085Z,102271.19
2022-12-18T20:43:24.842Z,102263.66
2022-12-18T20:45:51.340Z,102267.00
2022-12-18T20:48:20.089Z,102267.00
2022-12-18T20:51:02.059Z,102268.63
2022-12-18T20:53:30.455Z,102266.22
2022-12-18T20:55:56.844Z,102257.38
2022-12-18T20:58:23.865Z,102256.75
2022-12-18T21:00:51.104Z,102252.59
2022-12-18T21:03:18.871Z,102241.34
2022-12-18T21:05:45.404Z,102242.31
2022-12-18T21:08:11.907Z,102240.56
2022-12-18T21:10:42.409Z,102234.63
2022-12-18T21:13:09.543Z,102215.69
2022-12-18T21:15:37.745Z,102225.94
2022-12-18T21:18:04.456Z,102208.97
2022-12-18T21:20:31.271Z,102219.06
2022-12-18T21:23:08.563Z,102210.22
2022-12-18T21:25:42.816Z,102206.84
2022-12-18T21:28:09.266Z,102207.81
2022-12-18T21:30:35.725Z,102199.94
2022-12-18T21:33:02.184Z,102203.13
2022-12-18T21:35:28.625Z,102206.31
2022-12-18T21:37:58.503Z,102198.78
2022-12-18T21:40:25.069Z,102195.25
2022-12-18T21:43:10.239Z,102197.81
2022-12-18T21:45:39.659Z,102200.22
2022-12-18T21:48:06.231Z,102203.56
2022-12-18T21:50:32.634Z,102193.31
2022-12-18T21:52:59.008Z,102188.00
2022-12-18T21:55:25.633Z,102188.00
2022-12-18T21:57:53.728Z,102187.03
2022-12-18T22:00:20.213Z,102174.00
2022-12-18T22:02:48.344Z,102145.00
2022-12-18T22:05:34.396Z,102165.31
2022-12-18T22:08:01.484Z,102160.03
2022-12-18T22:10:27.868Z,102150.38
2022-12-18T22:12:55.113Z,102156.28
2022-12-18T22:15:22.035Z,102137.38
2022-12-18T22:17:59.818Z,102144.91
2022-12-18T22:20:27.147Z,102137.19
2022-12-18T22:22:53.699Z,102139.75
2022-12-18T22:25:20.136Z,102125.31
2022-12-18T22:28:06.778Z,102119.84
2022-12-18T22:30:33.551Z,102102.03
2022-12-18T22:33:00.249Z,102098.69
2022-12-18T22:35:26.729Z,102090.44
2022-12-18T22:37:53.207Z,102085.31
2022-12-18T22:40:27.261Z,102081.75
2022-12-18T22:42:54.512Z,102075.81
2022-12-18T22:45:26.040Z,102059.81
2022-12-18T22:47:52.480Z,102062.03
2022-12-18T22:50:18.921Z,102056.28
2022-12-18T22:52:45.391Z,102048.56
2022-12-18T22:55:11.831Z,102047.56
2022-12-18T22:57:39.572Z,102055.28
2022-12-18T23:00:09.579Z,102055.28
2022-12-18T23:02:36.235Z,102054.16
2022-12-18T23:05:03.044Z,102049.97
2022-12-18T23:07:29.631Z,102044.06
2022-12-18T23:10:01.108Z,102038.75
2022-12-18T23:12:28.048Z,102022.16
2022-12-18T23:14:54.576Z,102015.25
2022-12-18T23:17:20.958Z,102009.16
2022-12-18T23:19:49.381Z,101992.31
2022-12-18T23:22:17.221Z,102004.81
2022-12-18T23:24:43.608Z,102013.91
2022-12-18T23:27:11.928Z,102023.38
2022-12-18T23:29:39.444Z,102017.25
2022-12-18T23:32:05.916Z,102017.88
2022-12-18T23:34:32.662Z,102013.56
2022-12-18T23:36:59.151Z,102010.78
2022-12-18T23:39:30.068Z,102004.06
2022-12-18T23:42:00.686Z,101986.72
2022-12-18T23:44:27.488Z,101980.41
2022-12-18T23:46:54.112Z,101973.31
2022-12-18T23:49:20.637Z,101964.81
2022-12-18T23:51:47.109Z,101951.19
2022-12-18T23:54:13.642Z,101967.38
2022-12-18T23:56:40.055Z,101971.34
2022-12-18T23:59:06.529Z,101970.56
